sensor_id;sensor_type;location;lat;lon;timestamp;P1;durP1;ratioP1;P2;durP2;ratioP2
70335;SDS011;57756;47.408;18.940;2023-02-18T00:00:07;0.30;;;0.10;;
70335;SDS011;57756;47.408;18.940;2023-02-18T00:02:35;0.70;;;0.65;;
70335;SDS011;57756;47.408;18.940;2023-02-18T00:05:01;0.37;;;0.17;;
70335;SDS011;57756;47.408;18.940;2023-02-18T00:07:26;1.73;;;0.40;;
70335;SDS011;57756;47.408;18.940;2023-02-18T00:09:52;0.97;;;0.40;;
70335;SDS011;57756;47.408;18.940;2023-02-18T00:12:17;0.27;;;0.10;;
70335;SDS011;57756;47.408;18.940;2023-02-18T00:14:43;0.33;;;0.20;;
70335;SDS011;57756;47.408;18.940;2023-02-18T00:17:08;0.20;;;0.00;;
70335;SDS011;57756;47.408;18.940;2023-02-18T00:19:34;0.40;;;0.30;;
70335;SDS011;57756;47.408;18.940;2023-02-18T00:21:59;0.85;;;0.10;;
70335;SDS011;57756;47.408;18.940;2023-02-18T00:24:24;0.50;;;0.30;;
70335;SDS011;57756;47.408;18.940;2023-02-18T00:26:50;0.20;;;0.00;;
70335;SDS011;57756;47.408;18.940;2023-02-18T00:29:17;0.10;;;0.00;;
70335;SDS011;57756;47.408;18.940;2023-02-18T00:31:43;0.63;;;0.20;;
70335;SDS011;57756;47.408;18.940;2023-02-18T00:34:09;0.30;;;0.10;;
70335;SDS011;57756;47.408;18.940;2023-02-18T00:36:36;0.20;;;0.10;;
70335;SDS011;57756;47.408;18.940;2023-02-18T00:39:03;0.37;;;0.20;;
70335;SDS011;57756;47.408;18.940;2023-02-18T00:41:31;0.20;;;0.10;;
70335;SDS011;57756;47.408;18.940;2023-02-18T00:43:57;0.20;;;0.00;;
70335;SDS011;57756;47.408;18.940;2023-02-18T00:46:22;0.32;;;0.30;;
70335;SDS011;57756;47.408;18.940;2023-02-18T00:48:49;0.20;;;0.00;;
70335;SDS011;57756;47.408;18.940;2023-02-18T00:51:14;0.30;;;0.13;;
70335;SDS011;57756;47.408;18.940;2023-02-18T00:53:40;0.20;;;0.00;;
70335;SDS011;57756;47.408;18.940;2023-02-18T00:56:06;0.30;;;0.20;;
70335;SDS011;57756;47.408;18.940;2023-02-18T00:58:32;0.20;;;0.10;;
70335;SDS011;57756;47.408;18.940;2023-02-18T01:00:58;0.20;;;0.10;;
70335;SDS011;57756;47.408;18.940;2023-02-18T01:03:24;0.20;;;0.00;;
70335;SDS011;57756;47.408;18.940;2023-02-18T01:05:50;0.10;;;0.00;;
70335;SDS011;57756;47.408;18.940;2023-02-18T01:08:17;0.20;;;0.00;;
70335;SDS011;57756;47.408;18.940;2023-02-18T01:10:45;0.13;;;0.00;;
70335;SDS011;57756;47.408;18.940;2023-02-18T01:13:12;0.30;;;0.10;;
70335;SDS011;57756;47.408;18.940;2023-02-18T01:15:38;0.20;;;0.03;;
70335;SDS011;57756;47.408;18.940;2023-02-18T01:18:04;0.20;;;0.10;;
70335;SDS011;57756;47.408;18.940;2023-02-18T01:20:31;0.28;;;0.13;;
70335;SDS011;57756;47.408;18.940;2023-02-18T01:22:57;0.20;;;0.00;;
70335;SDS011;57756;47.408;18.940;2023-02-18T01:25:23;0.20;;;0.00;;
70335;SDS011;57756;47.408;18.940;2023-02-18T01:27:48;0.40;;;0.30;;
70335;SDS011;57756;47.408;18.940;2023-02-18T01:30:15;0.20;;;0.00;;
70335;SDS011;57756;47.408;18.940;2023-02-18T01:32:41;0.20;;;0.00;;
70335;SDS011;57756;47.408;18.940;2023-02-18T01:35:11;1.07;;;0.83;;
70335;SDS011;57756;47.408;18.940;2023-02-18T01:37:38;0.68;;;0.47;;
70335;SDS011;57756;47.408;18.940;2023-02-18T01:40:04;0.25;;;0.08;;
70335;SDS011;57756;47.408;18.940;2023-02-18T01:42:31;1.90;;;0.57;;
70335;SDS011;57756;47.408;18.940;2023-02-18T01:48:10;0.25;;;0.08;;
70335;SDS011;57756;47.408;18.940;2023-02-18T01:50:47;0.47;;;0.10;;
70335;SDS011;57756;47.408;18.940;2023-02-18T01:53:17;0.20;;;0.00;;
70335;SDS011;57756;47.408;18.940;2023-02-18T01:55:47;0.20;;;0.10;;
70335;SDS011;57756;47.408;18.940;2023-02-18T01:58:13;0.40;;;0.20;;
70335;SDS011;57756;47.408;18.940;2023-02-18T02:00:40;0.30;;;0.20;;
70335;SDS011;57756;47.408;18.940;2023-02-18T02:03:05;0.20;;;0.00;;
70335;SDS011;57756;47.408;18.940;2023-02-18T02:05:31;0.20;;;0.00;;
70335;SDS011;57756;47.408;18.940;2023-02-18T02:07:58;0.70;;;0.25;;
70335;SDS011;57756;47.408;18.940;2023-02-18T02:10:25;0.20;;;0.03;;
70335;SDS011;57756;47.408;18.940;2023-02-18T02:13:06;0.20;;;0.00;;
70335;SDS011;57756;47.408;18.940;2023-02-18T02:35:25;0.17;;;0.00;;
70335;SDS011;57756;47.408;18.940;2023-02-18T02:40:39;0.98;;;0.90;;
70335;SDS011;57756;47.408;18.940;2023-02-18T02:45:58;0.20;;;0.00;;
70335;SDS011;57756;47.408;18.940;2023-02-18T02:49:31;0.20;;;0.00;;
70335;SDS011;57756;47.408;18.940;2023-02-18T02:54:37;0.20;;;0.00;;
70335;SDS011;57756;47.408;18.940;2023-02-18T02:59:33;0.20;;;0.08;;
70335;SDS011;57756;47.408;18.940;2023-02-18T03:26:51;0.15;;;0.00;;
70335;SDS011;57756;47.408;18.940;2023-02-18T03:29:21;0.27;;;0.07;;
70335;SDS011;57756;47.408;18.940;2023-02-18T03:31:48;0.20;;;0.00;;
70335;SDS011;57756;47.408;18.940;2023-02-18T03:34:21;0.20;;;0.00;;
70335;SDS011;57756;47.408;18.940;2023-02-18T03:36:50;0.40;;;0.28;;
70335;SDS011;57756;47.408;18.940;2023-02-18T03:39:18;0.20;;;0.00;;
70335;SDS011;57756;47.408;18.940;2023-02-18T03:41:45;0.20;;;0.00;;
70335;SDS011;57756;47.408;18.940;2023-02-18T03:44:11;0.35;;;0.03;;
70335;SDS011;57756;47.408;18.940;2023-02-18T03:46:38;0.17;;;0.00;;
70335;SDS011;57756;47.408;18.940;2023-02-18T03:49:07;0.20;;;0.00;;
70335;SDS011;57756;47.408;18.940;2023-02-18T03:51:34;0.20;;;0.00;;
70335;SDS011;57756;47.408;18.940;2023-02-18T03:54:00;0.20;;;0.00;;
70335;SDS011;57756;47.408;18.940;2023-02-18T03:56:25;0.20;;;0.00;;
70335;SDS011;57756;47.408;18.940;2023-02-18T03:58:51;0.30;;;0.10;;
70335;SDS011;57756;47.408;18.940;2023-02-18T04:01:16;0.40;;;0.10;;
70335;SDS011;57756;47.408;18.940;2023-02-18T04:03:42;0.10;;;0.00;;
70335;SDS011;57756;47.408;18.940;2023-02-18T04:06:07;0.90;;;0.33;;
70335;SDS011;57756;47.408;18.940;2023-02-18T04:08:33;0.27;;;0.07;;
70335;SDS011;57756;47.408;18.940;2023-02-18T04:10:58;0.20;;;0.00;;
70335;SDS011;57756;47.408;18.940;2023-02-18T04:13:25;0.20;;;0.05;;
70335;SDS011;57756;47.408;18.940;2023-02-18T04:15:50;0.20;;;0.00;;
70335;SDS011;57756;47.408;18.940;2023-02-18T04:18:16;0.20;;;0.00;;
70335;SDS011;57756;47.408;18.940;2023-02-18T04:20:42;0.15;;;0.00;;
70335;SDS011;57756;47.408;18.940;2023-02-18T04:23:10;0.20;;;0.00;;
70335;SDS011;57756;47.408;18.940;2023-02-18T04:25:35;0.20;;;0.00;;
70335;SDS011;57756;47.408;18.940;2023-02-18T04:28:01;0.13;;;0.00;;
70335;SDS011;57756;47.408;18.940;2023-02-18T04:30:26;0.20;;;0.00;;
70335;SDS011;57756;47.408;18.940;2023-02-18T04:32:52;1.05;;;0.20;;
70335;SDS011;57756;47.408;18.940;2023-02-18T04:35:18;0.20;;;0.00;;
70335;SDS011;57756;47.408;18.940;2023-02-18T04:37:43;0.20;;;0.00;;
70335;SDS011;57756;47.408;18.940;2023-02-18T04:40:09;0.20;;;0.00;;
70335;SDS011;57756;47.408;18.940;2023-02-18T04:42:35;0.20;;;0.00;;
70335;SDS011;57756;47.408;18.940;2023-02-18T04:45:00;0.20;;;0.00;;
70335;SDS011;57756;47.408;18.940;2023-02-18T04:47:26;0.20;;;0.05;;
70335;SDS011;57756;47.408;18.940;2023-02-18T04:49:52;0.30;;;0.10;;
70335;SDS011;57756;47.408;18.940;2023-02-18T04:52:17;0.20;;;0.00;;
70335;SDS011;57756;47.408;18.940;2023-02-18T04:54:43;0.20;;;0.00;;
70335;SDS011;57756;47.408;18.940;2023-02-18T04:57:09;0.20;;;0.00;;
70335;SDS011;57756;47.408;18.940;2023-02-18T04:59:34;0.20;;;0.00;;
70335;SDS011;57756;47.408;18.940;2023-02-18T05:02:00;0.20;;;0.00;;
70335;SDS011;57756;47.408;18.940;2023-02-18T05:04:26;0.20;;;0.00;;
70335;SDS011;57756;47.408;18.940;2023-02-18T05:06:51;0.20;;;0.00;;
70335;SDS011;57756;47.408;18.940;2023-02-18T05:09:17;0.17;;;0.00;;
70335;SDS011;57756;47.408;18.940;2023-02-18T05:11:42;0.27;;;0.10;;
70335;SDS011;57756;47.408;18.940;2023-02-18T05:14:08;0.70;;;0.38;;
70335;SDS011;57756;47.408;18.940;2023-02-18T05:16:33;0.20;;;0.10;;
70335;SDS011;57756;47.408;18.940;2023-02-18T05:18:59;0.20;;;0.00;;
70335;SDS011;57756;47.408;18.940;2023-02-18T05:21:24;0.27;;;0.07;;
70335;SDS011;57756;47.408;18.940;2023-02-18T05:23:50;0.80;;;0.70;;
70335;SDS011;57756;47.408;18.940;2023-02-18T05:26:16;1.60;;;0.43;;
70335;SDS011;57756;47.408;18.940;2023-02-18T05:28:41;0.10;;;0.00;;
70335;SDS011;57756;47.408;18.940;2023-02-18T05:31:07;0.47;;;0.33;;
70335;SDS011;57756;47.408;18.940;2023-02-18T05:33:32;3.50;;;0.97;;
70335;SDS011;57756;47.408;18.940;2023-02-18T05:35:58;0.65;;;0.35;;
70335;SDS011;57756;47.408;18.940;2023-02-18T05:38:23;0.20;;;0.00;;
70335;SDS011;57756;47.408;18.940;2023-02-18T05:40:49;1.03;;;0.60;;
70335;SDS011;57756;47.408;18.940;2023-02-18T05:43:14;0.30;;;0.00;;
70335;SDS011;57756;47.408;18.940;2023-02-18T05:45:40;0.20;;;0.00;;
70335;SDS011;57756;47.408;18.940;2023-02-18T05:48:06;0.13;;;0.00;;
70335;SDS011;57756;47.408;18.940;2023-02-18T05:50:31;0.20;;;0.00;;
70335;SDS011;57756;47.408;18.940;2023-02-18T05:52:57;0.93;;;0.10;;
70335;SDS011;57756;47.408;18.940;2023-02-18T05:55:22;0.20;;;0.00;;
70335;SDS011;57756;47.408;18.940;2023-02-18T05:57:48;0.20;;;0.00;;
70335;SDS011;57756;47.408;18.940;2023-02-18T06:00:14;0.20;;;0.00;;
70335;SDS011;57756;47.408;18.940;2023-02-18T06:02:40;0.20;;;0.00;;
70335;SDS011;57756;47.408;18.940;2023-02-18T06:05:06;0.10;;;0.00;;
70335;SDS011;57756;47.408;18.940;2023-02-18T06:07:32;0.40;;;0.10;;
70335;SDS011;57756;47.408;18.940;2023-02-18T06:09:57;0.20;;;0.00;;
70335;SDS011;57756;47.408;18.940;2023-02-18T06:12:23;0.10;;;0.00;;
70335;SDS011;57756;47.408;18.940;2023-02-18T06:14:48;0.27;;;0.10;;
70335;SDS011;57756;47.408;18.940;2023-02-18T06:17:14;0.52;;;0.40;;
70335;SDS011;57756;47.408;18.940;2023-02-18T06:19:42;0.30;;;0.10;;
70335;SDS011;57756;47.408;18.940;2023-02-18T06:22:09;0.20;;;0.00;;
70335;SDS011;57756;47.408;18.940;2023-02-18T06:24:35;0.10;;;0.00;;
70335;SDS011;57756;47.408;18.940;2023-02-18T06:27:01;0.35;;;0.10;;
70335;SDS011;57756;47.408;18.940;2023-02-18T06:29:26;0.13;;;0.00;;
70335;SDS011;57756;47.408;18.940;2023-02-18T06:31:54;0.10;;;0.00;;
70335;SDS011;57756;47.408;18.940;2023-02-18T06:34:19;0.10;;;0.00;;
70335;SDS011;57756;47.408;18.940;2023-02-18T06:36:45;0.20;;;0.00;;
70335;SDS011;57756;47.408;18.940;2023-02-18T06:39:10;0.10;;;0.00;;
70335;SDS011;57756;47.408;18.940;2023-02-18T06:41:36;0.10;;;0.00;;
70335;SDS011;57756;47.408;18.940;2023-02-18T06:44:01;0.10;;;0.00;;
70335;SDS011;57756;47.408;18.940;2023-02-18T06:46:27;0.20;;;0.10;;
70335;SDS011;57756;47.408;18.940;2023-02-18T06:48:53;0.10;;;0.00;;
70335;SDS011;57756;47.408;18.940;2023-02-18T06:51:18;0.10;;;0.00;;
70335;SDS011;57756;47.408;18.940;2023-02-18T06:53:44;0.15;;;0.00;;
70335;SDS011;57756;47.408;18.940;2023-02-18T06:56:10;0.40;;;0.10;;
70335;SDS011;57756;47.408;18.940;2023-02-18T06:58:36;0.10;;;0.00;;
70335;SDS011;57756;47.408;18.940;2023-02-18T07:01:02;0.13;;;0.00;;
70335;SDS011;57756;47.408;18.940;2023-02-18T07:03:28;0.10;;;0.00;;
70335;SDS011;57756;47.408;18.940;2023-02-18T07:05:54;0.30;;;0.10;;
70335;SDS011;57756;47.408;18.940;2023-02-18T07:08:19;0.20;;;0.00;;
70335;SDS011;57756;47.408;18.940;2023-02-18T07:10:45;0.30;;;0.10;;
70335;SDS011;57756;47.408;18.940;2023-02-18T07:13:11;0.20;;;0.00;;
70335;SDS011;57756;47.408;18.940;2023-02-18T07:15:37;9.17;;;0.50;;
70335;SDS011;57756;47.408;18.940;2023-02-18T07:18:02;0.77;;;0.23;;
70335;SDS011;57756;47.408;18.940;2023-02-18T07:20:28;1.27;;;0.55;;
70335;SDS011;57756;47.408;18.940;2023-02-18T07:22:53;0.20;;;0.00;;
70335;SDS011;57756;47.408;18.940;2023-02-18T07:25:19;0.20;;;0.00;;
70335;SDS011;57756;47.408;18.940;2023-02-18T07:27:45;0.20;;;0.00;;
70335;SDS011;57756;47.408;18.940;2023-02-18T07:30:10;0.20;;;0.00;;
70335;SDS011;57756;47.408;18.940;2023-02-18T07:32:36;0.10;;;0.00;;
70335;SDS011;57756;47.408;18.940;2023-02-18T07:35:02;0.43;;;0.30;;
70335;SDS011;57756;47.408;18.940;2023-02-18T07:37:29;0.20;;;0.00;;
70335;SDS011;57756;47.408;18.940;2023-02-18T07:39:55;0.20;;;0.00;;
70335;SDS011;57756;47.408;18.940;2023-02-18T07:42:21;0.40;;;0.10;;
70335;SDS011;57756;47.408;18.940;2023-02-18T07:44:46;0.20;;;0.10;;
70335;SDS011;57756;47.408;18.940;2023-02-18T07:47:13;0.20;;;0.10;;
70335;SDS011;57756;47.408;18.940;2023-02-18T07:49:41;0.40;;;0.20;;
70335;SDS011;57756;47.408;18.940;2023-02-18T07:52:06;0.50;;;0.30;;
70335;SDS011;57756;47.408;18.940;2023-02-18T07:54:32;0.27;;;0.10;;
70335;SDS011;57756;47.408;18.940;2023-02-18T07:56:57;0.40;;;0.17;;
70335;SDS011;57756;47.408;18.940;2023-02-18T07:59:23;0.30;;;0.10;;
70335;SDS011;57756;47.408;18.940;2023-02-18T08:01:48;0.20;;;0.00;;
70335;SDS011;57756;47.408;18.940;2023-02-18T08:04:14;0.20;;;0.00;;
70335;SDS011;57756;47.408;18.940;2023-02-18T08:06:40;0.40;;;0.10;;
70335;SDS011;57756;47.408;18.940;2023-02-18T08:09:08;0.20;;;0.00;;
70335;SDS011;57756;47.408;18.940;2023-02-18T08:11:33;0.20;;;0.00;;
70335;SDS011;57756;47.408;18.940;2023-02-18T08:14:00;0.20;;;0.00;;
70335;SDS011;57756;47.408;18.940;2023-02-18T08:16:25;0.60;;;0.20;;
70335;SDS011;57756;47.408;18.940;2023-02-18T08:18:51;0.10;;;0.00;;
70335;SDS011;57756;47.408;18.940;2023-02-18T08:21:18;0.28;;;0.03;;
70335;SDS011;57756;47.408;18.940;2023-02-18T08:23:45;0.20;;;0.00;;
70335;SDS011;57756;47.408;18.940;2023-02-18T08:26:11;0.20;;;0.00;;
70335;SDS011;57756;47.408;18.940;2023-02-18T08:28:37;0.20;;;0.05;;
70335;SDS011;57756;47.408;18.940;2023-02-18T08:31:03;0.17;;;0.00;;
70335;SDS011;57756;47.408;18.940;2023-02-18T08:33:29;0.20;;;0.03;;
70335;SDS011;57756;47.408;18.940;2023-02-18T08:35:55;0.20;;;0.00;;
70335;SDS011;57756;47.408;18.940;2023-02-18T08:38:20;0.20;;;0.00;;
70335;SDS011;57756;47.408;18.940;2023-02-18T08:40:47;6.13;;;0.40;;
70335;SDS011;57756;47.408;18.940;2023-02-18T08:43:14;0.30;;;0.10;;
70335;SDS011;57756;47.408;18.940;2023-02-18T08:45:40;0.20;;;0.00;;
70335;SDS011;57756;47.408;18.940;2023-02-18T08:48:07;0.20;;;0.00;;
70335;SDS011;57756;47.408;18.940;2023-02-18T08:50:34;0.20;;;0.00;;
70335;SDS011;57756;47.408;18.940;2023-02-18T08:53:00;0.20;;;0.00;;
70335;SDS011;57756;47.408;18.940;2023-02-18T08:55:31;0.30;;;0.10;;
70335;SDS011;57756;47.408;18.940;2023-02-18T08:57:58;0.20;;;0.00;;
70335;SDS011;57756;47.408;18.940;2023-02-18T09:00:24;0.20;;;0.10;;
70335;SDS011;57756;47.408;18.940;2023-02-18T09:02:50;0.32;;;0.10;;
70335;SDS011;57756;47.408;18.940;2023-02-18T09:05:16;0.40;;;0.10;;
70335;SDS011;57756;47.408;18.940;2023-02-18T09:07:41;0.30;;;0.10;;
70335;SDS011;57756;47.408;18.940;2023-02-18T09:10:07;0.20;;;0.00;;
70335;SDS011;57756;47.408;18.940;2023-02-18T09:12:36;0.20;;;0.00;;
70335;SDS011;57756;47.408;18.940;2023-02-18T09:15:02;0.30;;;0.10;;
70335;SDS011;57756;47.408;18.940;2023-02-18T09:17:28;0.20;;;0.00;;
70335;SDS011;57756;47.408;18.940;2023-02-18T09:19:54;0.20;;;0.00;;
70335;SDS011;57756;47.408;18.940;2023-02-18T09:22:19;0.50;;;0.37;;
70335;SDS011;57756;47.408;18.940;2023-02-18T09:24:45;0.20;;;0.00;;
70335;SDS011;57756;47.408;18.940;2023-02-18T09:27:10;0.30;;;0.10;;
70335;SDS011;57756;47.408;18.940;2023-02-18T09:29:37;2.15;;;0.20;;
70335;SDS011;57756;47.408;18.940;2023-02-18T09:32:04;0.20;;;0.10;;
70335;SDS011;57756;47.408;18.940;2023-02-18T09:34:31;0.20;;;0.00;;
70335;SDS011;57756;47.408;18.940;2023-02-18T09:36:56;0.85;;;0.70;;
70335;SDS011;57756;47.408;18.940;2023-02-18T09:39:22;0.20;;;0.00;;
70335;SDS011;57756;47.408;18.940;2023-02-18T09:44:31;0.30;;;0.10;;
70335;SDS011;57756;47.408;18.940;2023-02-18T09:49:39;3.03;;;0.63;;
70335;SDS011;57756;47.408;18.940;2023-02-18T09:54:53;0.30;;;0.00;;
70335;SDS011;57756;47.408;18.940;2023-02-18T09:57:24;0.20;;;0.00;;
70335;SDS011;57756;47.408;18.940;2023-02-18T10:00:03;0.47;;;0.20;;
70335;SDS011;57756;47.408;18.940;2023-02-18T10:02:36;0.22;;;0.05;;
70335;SDS011;57756;47.408;18.940;2023-02-18T10:05:04;0.20;;;0.00;;
70335;SDS011;57756;47.408;18.940;2023-02-18T10:07:30;0.20;;;0.00;;
70335;SDS011;57756;47.408;18.940;2023-02-18T10:09:58;0.22;;;0.00;;
70335;SDS011;57756;47.408;18.940;2023-02-18T10:12:28;0.20;;;0.00;;
70335;SDS011;57756;47.408;18.940;2023-02-18T10:14:57;0.30;;;0.10;;
70335;SDS011;57756;47.408;18.940;2023-02-18T10:17:25;0.40;;;0.10;;
70335;SDS011;57756;47.408;18.940;2023-02-18T10:19:52;0.52;;;0.35;;
70335;SDS011;57756;47.408;18.940;2023-02-18T10:22:20;0.30;;;0.20;;
70335;SDS011;57756;47.408;18.940;2023-02-18T10:24:51;0.20;;;0.00;;
70335;SDS011;57756;47.408;18.940;2023-02-18T10:27:31;0.20;;;0.00;;
70335;SDS011;57756;47.408;18.940;2023-02-18T10:32:42;0.40;;;0.20;;
70335;SDS011;57756;47.408;18.940;2023-02-18T10:37:56;1.63;;;0.55;;
70335;SDS011;57756;47.408;18.940;2023-02-18T10:46:03;2.55;;;0.40;;
70335;SDS011;57756;47.408;18.940;2023-02-18T10:51:27;0.20;;;0.10;;
70335;SDS011;57756;47.408;18.940;2023-02-18T10:53:55;0.38;;;0.10;;
70335;SDS011;57756;47.408;18.940;2023-02-18T10:56:33;0.30;;;0.10;;
70335;SDS011;57756;47.408;18.940;2023-02-18T10:59:12;0.45;;;0.15;;
70335;SDS011;57756;47.408;18.940;2023-02-18T11:01:44;0.70;;;0.40;;
70335;SDS011;57756;47.408;18.940;2023-02-18T11:04:17;0.70;;;0.50;;
70335;SDS011;57756;47.408;18.940;2023-02-18T11:06:46;0.30;;;0.10;;
70335;SDS011;57756;47.408;18.940;2023-02-18T11:09:24;0.63;;;0.35;;
70335;SDS011;57756;47.408;18.940;2023-02-18T11:11:50;0.35;;;0.10;;
70335;SDS011;57756;47.408;18.940;2023-02-18T11:14:34;1.95;;;0.32;;
70335;SDS011;57756;47.408;18.940;2023-02-18T11:17:20;0.20;;;0.00;;
70335;SDS011;57756;47.408;18.940;2023-02-18T11:19:51;0.20;;;0.03;;
70335;SDS011;57756;47.408;18.940;2023-02-18T11:24:57;0.20;;;0.00;;
70335;SDS011;57756;47.408;18.940;2023-02-18T11:27:30;0.20;;;0.00;;
70335;SDS011;57756;47.408;18.940;2023-02-18T11:30:14;0.30;;;0.10;;
70335;SDS011;57756;47.408;18.940;2023-02-18T11:32:41;0.80;;;0.20;;
70335;SDS011;57756;47.408;18.940;2023-02-18T11:35:15;0.30;;;0.10;;
70335;SDS011;57756;47.408;18.940;2023-02-18T11:37:43;0.25;;;0.10;;
70335;SDS011;57756;47.408;18.940;2023-02-18T11:43:17;0.30;;;0.10;;
70335;SDS011;57756;47.408;18.940;2023-02-18T11:45:43;0.32;;;0.13;;
70335;SDS011;57756;47.408;18.940;2023-02-18T11:50:38;0.40;;;0.10;;
70335;SDS011;57756;47.408;18.940;2023-02-18T11:53:23;2.00;;;1.13;;
70335;SDS011;57756;47.408;18.940;2023-02-18T11:55:55;2.05;;;1.52;;
70335;SDS011;57756;47.408;18.940;2023-02-18T11:58:45;1.43;;;0.60;;
70335;SDS011;57756;47.408;18.940;2023-02-18T12:01:14;1.30;;;0.20;;
70335;SDS011;57756;47.408;18.940;2023-02-18T12:03:56;0.40;;;0.17;;
70335;SDS011;57756;47.408;18.940;2023-02-18T12:06:36;0.25;;;0.10;;
70335;SDS011;57756;47.408;18.940;2023-02-18T12:09:21;0.30;;;0.10;;
70335;SDS011;57756;47.408;18.940;2023-02-18T12:11:55;0.40;;;0.10;;
70335;SDS011;57756;47.408;18.940;2023-02-18T12:14:24;0.30;;;0.10;;
70335;SDS011;57756;47.408;18.940;2023-02-18T12:22:34;0.30;;;0.10;;
70335;SDS011;57756;47.408;18.940;2023-02-18T12:25:26;0.30;;;0.10;;
70335;SDS011;57756;47.408;18.940;2023-02-18T12:31:06;0.28;;;0.10;;
70335;SDS011;57756;47.408;18.940;2023-02-18T12:42:07;0.20;;;0.00;;
70335;SDS011;57756;47.408;18.940;2023-02-18T12:47:52;0.28;;;0.05;;
70335;SDS011;57756;47.408;18.940;2023-02-18T12:50:29;0.30;;;0.10;;
70335;SDS011;57756;47.408;18.940;2023-02-18T12:55:54;0.38;;;0.10;;
70335;SDS011;57756;47.408;18.940;2023-02-18T13:12:50;0.25;;;0.05;;
70335;SDS011;57756;47.408;18.940;2023-02-18T13:15:47;0.30;;;0.10;;
70335;SDS011;57756;47.408;18.940;2023-02-18T13:18:19;1.37;;;0.93;;
70335;SDS011;57756;47.408;18.940;2023-02-18T13:20:50;0.38;;;0.10;;
70335;SDS011;57756;47.408;18.940;2023-02-18T13:23:22;0.52;;;0.20;;
70335;SDS011;57756;47.408;18.940;2023-02-18T13:25:57;0.57;;;0.20;;
70335;SDS011;57756;47.408;18.940;2023-02-18T13:34:03;0.52;;;0.20;;
70335;SDS011;57756;47.408;18.940;2023-02-18T13:39:46;0.20;;;0.00;;
70335;SDS011;57756;47.408;18.940;2023-02-18T13:47:15;0.40;;;0.15;;
70335;SDS011;57756;47.408;18.940;2023-02-18T13:50:12;0.27;;;0.10;;
70335;SDS011;57756;47.408;18.940;2023-02-18T13:52:38;0.20;;;0.10;;
70335;SDS011;57756;47.408;18.940;2023-02-18T13:55:04;0.30;;;0.10;;
70335;SDS011;57756;47.408;18.940;2023-02-18T13:57:30;0.30;;;0.10;;
70335;SDS011;57756;47.408;18.940;2023-02-18T14:00:03;0.20;;;0.00;;
70335;SDS011;57756;47.408;18.940;2023-02-18T14:02:36;0.20;;;0.10;;
70335;SDS011;57756;47.408;18.940;2023-02-18T14:05:22;0.40;;;0.20;;
70335;SDS011;57756;47.408;18.940;2023-02-18T14:07:50;0.40;;;0.22;;
70335;SDS011;57756;47.408;18.940;2023-02-18T14:10:31;0.30;;;0.10;;
70335;SDS011;57756;47.408;18.940;2023-02-18T14:13:19;0.30;;;0.10;;
70335;SDS011;57756;47.408;18.940;2023-02-18T14:15:52;0.30;;;0.00;;
70335;SDS011;57756;47.408;18.940;2023-02-18T14:18:23;0.50;;;0.28;;
70335;SDS011;57756;47.408;18.940;2023-02-18T14:20:50;1.40;;;0.95;;
70335;SDS011;57756;47.408;18.940;2023-02-18T14:25:48;1.25;;;0.95;;
70335;SDS011;57756;47.408;18.940;2023-02-18T14:33:41;2.22;;;1.00;;
70335;SDS011;57756;47.408;18.940;2023-02-18T14:41:27;1.55;;;1.08;;
70335;SDS011;57756;47.408;18.940;2023-02-18T14:44:29;3.05;;;1.48;;
70335;SDS011;57756;47.408;18.940;2023-02-18T14:49:54;1.10;;;0.47;;
70335;SDS011;57756;47.408;18.940;2023-02-18T14:54:57;2.03;;;1.30;;
70335;SDS011;57756;47.408;18.940;2023-02-18T14:57:39;3.88;;;1.40;;
70335;SDS011;57756;47.408;18.940;2023-02-18T15:00:32;0.90;;;0.60;;
70335;SDS011;57756;47.408;18.940;2023-02-18T15:03:00;1.40;;;1.20;;
70335;SDS011;57756;47.408;18.940;2023-02-18T15:05:30;2.60;;;1.23;;
70335;SDS011;57756;47.408;18.940;2023-02-18T15:08:04;0.70;;;0.43;;
70335;SDS011;57756;47.408;18.940;2023-02-18T15:10:36;3.17;;;1.90;;
70335;SDS011;57756;47.408;18.940;2023-02-18T15:13:11;2.22;;;1.55;;
70335;SDS011;57756;47.408;18.940;2023-02-18T15:15:51;1.70;;;0.50;;
70335;SDS011;57756;47.408;18.940;2023-02-18T15:18:22;1.23;;;1.02;;
70335;SDS011;57756;47.408;18.940;2023-02-18T15:20:51;1.90;;;0.85;;
70335;SDS011;57756;47.408;18.940;2023-02-18T15:23:16;4.97;;;1.20;;
70335;SDS011;57756;47.408;18.940;2023-02-18T15:25:44;1.30;;;0.80;;
70335;SDS011;57756;47.408;18.940;2023-02-18T15:28:20;1.52;;;1.10;;
70335;SDS011;57756;47.408;18.940;2023-02-18T15:30:48;7.00;;;2.58;;
70335;SDS011;57756;47.408;18.940;2023-02-18T15:33:14;1.33;;;0.87;;
70335;SDS011;57756;47.408;18.940;2023-02-18T15:35:43;1.70;;;0.85;;
70335;SDS011;57756;47.408;18.940;2023-02-18T15:38:13;1.98;;;1.48;;
70335;SDS011;57756;47.408;18.940;2023-02-18T15:40:40;2.27;;;0.80;;
70335;SDS011;57756;47.408;18.940;2023-02-18T15:43:06;1.92;;;1.40;;
70335;SDS011;57756;47.408;18.940;2023-02-18T15:45:35;2.05;;;0.40;;
70335;SDS011;57756;47.408;18.940;2023-02-18T15:48:19;0.60;;;0.43;;
70335;SDS011;57756;47.408;18.940;2023-02-18T15:50:48;0.52;;;0.38;;
70335;SDS011;57756;47.408;18.940;2023-02-18T15:53:17;2.20;;;1.33;;
70335;SDS011;57756;47.408;18.940;2023-02-18T15:55:45;1.30;;;1.10;;
70335;SDS011;57756;47.408;18.940;2023-02-18T16:00:56;3.75;;;1.65;;
70335;SDS011;57756;47.408;18.940;2023-02-18T16:03:25;0.70;;;0.28;;
70335;SDS011;57756;47.408;18.940;2023-02-18T16:06:08;0.70;;;0.50;;
70335;SDS011;57756;47.408;18.940;2023-02-18T16:08:40;0.85;;;0.70;;
70335;SDS011;57756;47.408;18.940;2023-02-18T16:11:09;2.25;;;1.90;;
70335;SDS011;57756;47.408;18.940;2023-02-18T16:13:43;1.37;;;1.07;;
70335;SDS011;57756;47.408;18.940;2023-02-18T16:16:30;1.50;;;0.98;;
70335;SDS011;57756;47.408;18.940;2023-02-18T16:18:57;1.60;;;0.35;;
70335;SDS011;57756;47.408;18.940;2023-02-18T16:24:01;2.60;;;2.38;;
70335;SDS011;57756;47.408;18.940;2023-02-18T16:26:41;0.97;;;0.77;;
70335;SDS011;57756;47.408;18.940;2023-02-18T16:29:12;2.30;;;0.93;;
70335;SDS011;57756;47.408;18.940;2023-02-18T16:31:40;1.25;;;1.15;;
70335;SDS011;57756;47.408;18.940;2023-02-18T16:34:05;3.97;;;2.55;;
70335;SDS011;57756;47.408;18.940;2023-02-18T16:36:31;2.07;;;1.67;;
70335;SDS011;57756;47.408;18.940;2023-02-18T16:38:57;1.48;;;1.13;;
70335;SDS011;57756;47.408;18.940;2023-02-18T16:41:25;6.10;;;2.38;;
70335;SDS011;57756;47.408;18.940;2023-02-18T16:43:52;2.22;;;1.25;;
70335;SDS011;57756;47.408;18.940;2023-02-18T16:46:18;2.23;;;1.63;;
70335;SDS011;57756;47.408;18.940;2023-02-18T16:48:49;11.10;;;0.95;;
70335;SDS011;57756;47.408;18.940;2023-02-18T16:53:54;1.38;;;1.00;;
70335;SDS011;57756;47.408;18.940;2023-02-18T16:56:20;3.77;;;2.27;;
70335;SDS011;57756;47.408;18.940;2023-02-18T16:58:48;4.70;;;2.83;;
70335;SDS011;57756;47.408;18.940;2023-02-18T17:01:37;3.20;;;1.80;;
70335;SDS011;57756;47.408;18.940;2023-02-18T17:04:05;1.67;;;1.00;;
70335;SDS011;57756;47.408;18.940;2023-02-18T17:06:34;2.92;;;1.67;;
70335;SDS011;57756;47.408;18.940;2023-02-18T17:08:59;3.97;;;1.73;;
70335;SDS011;57756;47.408;18.940;2023-02-18T17:11:29;1.83;;;0.88;;
70335;SDS011;57756;47.408;18.940;2023-02-18T17:13:58;2.15;;;1.83;;
70335;SDS011;57756;47.408;18.940;2023-02-18T17:16:24;2.00;;;1.75;;
70335;SDS011;57756;47.408;18.940;2023-02-18T17:18:51;0.77;;;0.68;;
70335;SDS011;57756;47.408;18.940;2023-02-18T17:21:18;2.43;;;1.47;;
70335;SDS011;57756;47.408;18.940;2023-02-18T17:23:45;1.17;;;0.82;;
70335;SDS011;57756;47.408;18.940;2023-02-18T17:28:46;5.65;;;3.05;;
70335;SDS011;57756;47.408;18.940;2023-02-18T17:31:16;2.60;;;2.15;;